Cottonville, North Carolina
Current Conditions -  °F | °C
As of 1:35 PM on Sunday 21 Dec 2014 (Local Time) from KVUJ Reporting Station
Overcast Overcast  
Wind Chill: 48°   Ceiling: 4200
Heat Index: 48°   Visibility: 10mi
Dew Point: 38°   Wind: 3mph
Humidity: 67%   Direction: 30°NNE
Pressure: 30.26"   Gusts: NA
Location:  35.2152°N, 80.1663°W
Report Text: KVUJ 211835Z AUTO 03003KT 10SM OVC042 09/03 A3026 RMK AO2 T00910032
Loading
Personal Weather Stations






























Interactive Weather Map New forecast layout! Learn more

10-Day Weather Forecast

Advertisements
Track Severe Weather on mobile